sensor_id;sensor_type;location;lat;lon;timestamp;P1;durP1;ratioP1;P2;durP2;ratioP2
27533;SDS011;14973;51.460;7.008;2022-08-07T00:01:33;7.57;;;3.78;;
27533;SDS011;14973;51.460;7.008;2022-08-07T00:03:59;12.95;;;3.90;;
27533;SDS011;14973;51.460;7.008;2022-08-07T00:06:25;6.10;;;3.50;;
27533;SDS011;14973;51.460;7.008;2022-08-07T00:08:51;5.95;;;3.70;;
27533;SDS011;14973;51.460;7.008;2022-08-07T00:11:17;7.57;;;3.50;;
27533;SDS011;14973;51.460;7.008;2022-08-07T00:13:42;10.63;;;3.47;;
27533;SDS011;14973;51.460;7.008;2022-08-07T00:16:10;6.50;;;3.10;;
27533;SDS011;14973;51.460;7.008;2022-08-07T00:18:36;7.72;;;3.85;;
27533;SDS011;14973;51.460;7.008;2022-08-07T00:21:03;11.52;;;4.05;;
27533;SDS011;14973;51.460;7.008;2022-08-07T00:23:31;9.52;;;3.70;;
27533;SDS011;14973;51.460;7.008;2022-08-07T00:25:59;9.98;;;3.70;;
27533;SDS011;14973;51.460;7.008;2022-08-07T00:28:26;7.18;;;3.38;;
27533;SDS011;14973;51.460;7.008;2022-08-07T00:30:52;8.95;;;3.70;;
27533;SDS011;14973;51.460;7.008;2022-08-07T00:33:18;8.85;;;3.75;;
27533;SDS011;14973;51.460;7.008;2022-08-07T00:35:44;5.18;;;3.30;;
27533;SDS011;14973;51.460;7.008;2022-08-07T00:38:09;6.78;;;3.10;;
27533;SDS011;14973;51.460;7.008;2022-08-07T00:40:35;8.25;;;3.25;;
27533;SDS011;14973;51.460;7.008;2022-08-07T00:43:02;8.27;;;3.53;;
27533;SDS011;14973;51.460;7.008;2022-08-07T00:45:27;9.43;;;3.40;;
27533;SDS011;14973;51.460;7.008;2022-08-07T00:47:53;6.82;;;3.28;;
27533;SDS011;14973;51.460;7.008;2022-08-07T00:50:19;9.05;;;3.17;;
27533;SDS011;14973;51.460;7.008;2022-08-07T00:52:44;7.28;;;2.97;;
27533;SDS011;14973;51.460;7.008;2022-08-07T00:55:10;5.95;;;2.78;;
27533;SDS011;14973;51.460;7.008;2022-08-07T00:57:36;10.07;;;3.28;;
27533;SDS011;14973;51.460;7.008;2022-08-07T01:00:05;8.55;;;3.03;;
27533;SDS011;14973;51.460;7.008;2022-08-07T01:02:32;9.73;;;3.30;;
27533;SDS011;14973;51.460;7.008;2022-08-07T01:04:58;10.68;;;4.03;;
27533;SDS011;14973;51.460;7.008;2022-08-07T01:07:24;7.28;;;3.58;;
27533;SDS011;14973;51.460;7.008;2022-08-07T01:09:51;7.55;;;3.55;;
27533;SDS011;14973;51.460;7.008;2022-08-07T01:12:17;10.27;;;4.63;;
27533;SDS011;14973;51.460;7.008;2022-08-07T01:14:43;11.45;;;3.78;;
27533;SDS011;14973;51.460;7.008;2022-08-07T01:17:09;7.30;;;3.70;;
27533;SDS011;14973;51.460;7.008;2022-08-07T01:19:35;8.43;;;3.83;;
27533;SDS011;14973;51.460;7.008;2022-08-07T01:22:01;9.45;;;4.45;;
27533;SDS011;14973;51.460;7.008;2022-08-07T01:24:28;10.50;;;3.80;;
27533;SDS011;14973;51.460;7.008;2022-08-07T01:26:54;10.48;;;4.45;;
27533;SDS011;14973;51.460;7.008;2022-08-07T01:29:26;7.78;;;4.70;;
27533;SDS011;14973;51.460;7.008;2022-08-07T01:31:52;8.85;;;3.88;;
27533;SDS011;14973;51.460;7.008;2022-08-07T01:34:18;8.20;;;4.07;;
27533;SDS011;14973;51.460;7.008;2022-08-07T01:36:45;10.55;;;4.30;;
27533;SDS011;14973;51.460;7.008;2022-08-07T01:39:14;8.90;;;4.45;;
27533;SDS011;14973;51.460;7.008;2022-08-07T01:41:40;8.18;;;4.18;;
27533;SDS011;14973;51.460;7.008;2022-08-07T01:44:10;9.75;;;4.65;;
27533;SDS011;14973;51.460;7.008;2022-08-07T01:46:36;9.18;;;4.38;;
27533;SDS011;14973;51.460;7.008;2022-08-07T01:49:04;11.13;;;4.63;;
27533;SDS011;14973;51.460;7.008;2022-08-07T01:51:30;8.07;;;4.22;;
27533;SDS011;14973;51.460;7.008;2022-08-07T01:53:57;13.82;;;4.60;;
27533;SDS011;14973;51.460;7.008;2022-08-07T01:56:36;9.55;;;4.40;;
27533;SDS011;14973;51.460;7.008;2022-08-07T01:59:23;8.57;;;4.43;;
27533;SDS011;14973;51.460;7.008;2022-08-07T02:01:59;7.40;;;4.80;;
27533;SDS011;14973;51.460;7.008;2022-08-07T02:04:44;9.98;;;4.60;;
27533;SDS011;14973;51.460;7.008;2022-08-07T02:07:15;11.43;;;4.78;;
27533;SDS011;14973;51.460;7.008;2022-08-07T02:09:44;12.30;;;4.72;;
27533;SDS011;14973;51.460;7.008;2022-08-07T02:12:13;10.75;;;4.80;;
27533;SDS011;14973;51.460;7.008;2022-08-07T02:14:47;7.30;;;4.53;;
27533;SDS011;14973;51.460;7.008;2022-08-07T02:17:16;7.40;;;4.68;;
27533;SDS011;14973;51.460;7.008;2022-08-07T02:19:43;14.02;;;4.63;;
27533;SDS011;14973;51.460;7.008;2022-08-07T02:22:12;15.35;;;4.90;;
27533;SDS011;14973;51.460;7.008;2022-08-07T02:24:42;7.70;;;4.50;;
27533;SDS011;14973;51.460;7.008;2022-08-07T02:27:09;13.13;;;4.70;;
27533;SDS011;14973;51.460;7.008;2022-08-07T02:29:38;9.25;;;4.88;;
27533;SDS011;14973;51.460;7.008;2022-08-07T02:32:05;11.35;;;5.03;;
27533;SDS011;14973;51.460;7.008;2022-08-07T02:34:33;7.85;;;4.43;;
27533;SDS011;14973;51.460;7.008;2022-08-07T02:36:59;12.15;;;5.15;;
27533;SDS011;14973;51.460;7.008;2022-08-07T02:39:28;16.25;;;9.35;;
27533;SDS011;14973;51.460;7.008;2022-08-07T02:41:54;13.80;;;7.10;;
27533;SDS011;14973;51.460;7.008;2022-08-07T02:44:22;14.85;;;5.85;;
27533;SDS011;14973;51.460;7.008;2022-08-07T02:46:49;14.52;;;5.40;;
27533;SDS011;14973;51.460;7.008;2022-08-07T02:49:18;9.70;;;5.05;;
27533;SDS011;14973;51.460;7.008;2022-08-07T02:51:44;8.52;;;5.22;;
27533;SDS011;14973;51.460;7.008;2022-08-07T02:54:11;11.18;;;5.18;;
27533;SDS011;14973;51.460;7.008;2022-08-07T02:56:39;12.57;;;5.80;;
27533;SDS011;14973;51.460;7.008;2022-08-07T02:59:08;11.85;;;5.53;;
27533;SDS011;14973;51.460;7.008;2022-08-07T03:01:36;10.50;;;5.18;;
27533;SDS011;14973;51.460;7.008;2022-08-07T03:04:06;11.50;;;5.88;;
27533;SDS011;14973;51.460;7.008;2022-08-07T03:06:33;8.93;;;5.80;;
27533;SDS011;14973;51.460;7.008;2022-08-07T03:09:01;11.70;;;5.18;;
27533;SDS011;14973;51.460;7.008;2022-08-07T03:11:32;14.60;;;5.22;;
27533;SDS011;14973;51.460;7.008;2022-08-07T03:13:59;9.77;;;5.22;;
27533;SDS011;14973;51.460;7.008;2022-08-07T03:16:28;10.25;;;5.47;;
27533;SDS011;14973;51.460;7.008;2022-08-07T03:18:55;11.27;;;5.03;;
27533;SDS011;14973;51.460;7.008;2022-08-07T03:21:23;9.00;;;4.57;;
27533;SDS011;14973;51.460;7.008;2022-08-07T03:23:50;8.30;;;4.85;;
27533;SDS011;14973;51.460;7.008;2022-08-07T03:26:18;13.20;;;4.70;;
27533;SDS011;14973;51.460;7.008;2022-08-07T03:28:49;11.13;;;4.55;;
27533;SDS011;14973;51.460;7.008;2022-08-07T03:31:15;10.13;;;4.22;;
27533;SDS011;14973;51.460;7.008;2022-08-07T03:34:03;9.13;;;4.53;;
27533;SDS011;14973;51.460;7.008;2022-08-07T03:36:31;6.43;;;4.15;;
27533;SDS011;14973;51.460;7.008;2022-08-07T03:39:04;10.63;;;4.80;;
27533;SDS011;14973;51.460;7.008;2022-08-07T03:41:33;5.75;;;4.30;;
27533;SDS011;14973;51.460;7.008;2022-08-07T03:44:00;11.43;;;4.45;;
27533;SDS011;14973;51.460;7.008;2022-08-07T03:46:26;11.65;;;4.70;;
27533;SDS011;14973;51.460;7.008;2022-08-07T03:48:53;11.73;;;4.95;;
27533;SDS011;14973;51.460;7.008;2022-08-07T03:51:19;9.55;;;4.95;;
27533;SDS011;14973;51.460;7.008;2022-08-07T03:53:45;9.07;;;5.00;;
27533;SDS011;14973;51.460;7.008;2022-08-07T03:56:13;9.30;;;4.95;;
27533;SDS011;14973;51.460;7.008;2022-08-07T03:58:44;8.65;;;4.15;;
27533;SDS011;14973;51.460;7.008;2022-08-07T04:01:10;11.02;;;5.00;;
27533;SDS011;14973;51.460;7.008;2022-08-07T04:03:37;8.50;;;4.45;;
27533;SDS011;14973;51.460;7.008;2022-08-07T04:06:06;10.43;;;4.47;;
27533;SDS011;14973;51.460;7.008;2022-08-07T04:08:34;9.95;;;4.18;;
27533;SDS011;14973;51.460;7.008;2022-08-07T04:11:00;7.75;;;4.65;;
27533;SDS011;14973;51.460;7.008;2022-08-07T04:13:26;7.57;;;4.47;;
27533;SDS011;14973;51.460;7.008;2022-08-07T04:15:52;8.40;;;4.35;;
27533;SDS011;14973;51.460;7.008;2022-08-07T04:18:18;7.32;;;4.22;;
27533;SDS011;14973;51.460;7.008;2022-08-07T04:20:44;9.55;;;4.47;;
27533;SDS011;14973;51.460;7.008;2022-08-07T04:23:10;7.90;;;4.07;;
27533;SDS011;14973;51.460;7.008;2022-08-07T04:25:37;10.20;;;4.20;;
27533;SDS011;14973;51.460;7.008;2022-08-07T04:28:05;10.63;;;3.97;;
27533;SDS011;14973;51.460;7.008;2022-08-07T04:30:32;8.85;;;4.35;;
27533;SDS011;14973;51.460;7.008;2022-08-07T04:32:59;13.07;;;4.13;;
27533;SDS011;14973;51.460;7.008;2022-08-07T04:35:25;7.03;;;3.63;;
27533;SDS011;14973;51.460;7.008;2022-08-07T04:37:51;9.25;;;3.50;;
27533;SDS011;14973;51.460;7.008;2022-08-07T04:40:17;6.35;;;2.92;;
27533;SDS011;14973;51.460;7.008;2022-08-07T04:42:43;9.13;;;2.50;;
27533;SDS011;14973;51.460;7.008;2022-08-07T04:45:08;6.65;;;2.85;;
27533;SDS011;14973;51.460;7.008;2022-08-07T04:50:17;7.88;;;3.03;;
27533;SDS011;14973;51.460;7.008;2022-08-07T04:53:13;7.57;;;2.67;;
27533;SDS011;14973;51.460;7.008;2022-08-07T04:55:48;4.75;;;2.30;;
27533;SDS011;14973;51.460;7.008;2022-08-07T04:58:23;4.88;;;2.47;;
27533;SDS011;14973;51.460;7.008;2022-08-07T05:00:58;4.90;;;2.42;;
27533;SDS011;14973;51.460;7.008;2022-08-07T05:03:35;6.10;;;2.17;;
27533;SDS011;14973;51.460;7.008;2022-08-07T05:06:13;5.15;;;2.00;;
27533;SDS011;14973;51.460;7.008;2022-08-07T05:08:51;5.95;;;2.50;;
27533;SDS011;14973;51.460;7.008;2022-08-07T05:11:23;8.40;;;2.30;;
27533;SDS011;14973;51.460;7.008;2022-08-07T05:13:57;12.00;;;2.88;;
27533;SDS011;14973;51.460;7.008;2022-08-07T05:16:26;10.18;;;2.38;;
27533;SDS011;14973;51.460;7.008;2022-08-07T05:18:58;3.42;;;2.10;;
27533;SDS011;14973;51.460;7.008;2022-08-07T05:21:27;5.93;;;2.05;;
27533;SDS011;14973;51.460;7.008;2022-08-07T05:23:59;2.88;;;1.88;;
27533;SDS011;14973;51.460;7.008;2022-08-07T05:26:28;4.30;;;1.85;;
27533;SDS011;14973;51.460;7.008;2022-08-07T05:28:56;6.32;;;2.17;;
27533;SDS011;14973;51.460;7.008;2022-08-07T05:31:26;4.30;;;1.75;;
27533;SDS011;14973;51.460;7.008;2022-08-07T05:33:57;6.53;;;2.00;;
27533;SDS011;14973;51.460;7.008;2022-08-07T05:36:24;4.03;;;1.98;;
27533;SDS011;14973;51.460;7.008;2022-08-07T05:38:52;5.70;;;2.17;;
27533;SDS011;14973;51.460;7.008;2022-08-07T05:41:19;7.63;;;2.47;;
27533;SDS011;14973;51.460;7.008;2022-08-07T05:43:49;4.35;;;2.35;;
27533;SDS011;14973;51.460;7.008;2022-08-07T05:46:20;4.68;;;2.15;;
27533;SDS011;14973;51.460;7.008;2022-08-07T05:48:48;8.52;;;2.50;;
27533;SDS011;14973;51.460;7.008;2022-08-07T05:51:15;2.80;;;1.90;;
27533;SDS011;14973;51.460;7.008;2022-08-07T05:53:41;4.65;;;1.90;;
27533;SDS011;14973;51.460;7.008;2022-08-07T05:56:08;3.72;;;1.90;;
27533;SDS011;14973;51.460;7.008;2022-08-07T05:58:35;8.18;;;1.58;;
27533;SDS011;14973;51.460;7.008;2022-08-07T06:01:02;3.42;;;1.80;;
27533;SDS011;14973;51.460;7.008;2022-08-07T06:03:30;3.08;;;1.45;;
27533;SDS011;14973;51.460;7.008;2022-08-07T06:05:57;4.28;;;1.52;;
27533;SDS011;14973;51.460;7.008;2022-08-07T06:08:24;1.90;;;1.25;;
27533;SDS011;14973;51.460;7.008;2022-08-07T06:10:51;4.78;;;1.30;;
27533;SDS011;14973;51.460;7.008;2022-08-07T06:13:17;6.38;;;1.35;;
27533;SDS011;14973;51.460;7.008;2022-08-07T06:15:43;2.35;;;1.40;;
27533;SDS011;14973;51.460;7.008;2022-08-07T06:18:12;3.53;;;1.45;;
27533;SDS011;14973;51.460;7.008;2022-08-07T06:20:38;3.45;;;1.35;;
27533;SDS011;14973;51.460;7.008;2022-08-07T06:23:05;2.15;;;1.30;;
27533;SDS011;14973;51.460;7.008;2022-08-07T06:25:33;2.53;;;1.05;;
27533;SDS011;14973;51.460;7.008;2022-08-07T06:28:06;3.83;;;1.65;;
27533;SDS011;14973;51.460;7.008;2022-08-07T06:30:34;3.72;;;1.63;;
27533;SDS011;14973;51.460;7.008;2022-08-07T06:33:00;2.20;;;1.30;;
27533;SDS011;14973;51.460;7.008;2022-08-07T06:35:26;2.92;;;1.48;;
27533;SDS011;14973;51.460;7.008;2022-08-07T06:37:52;3.65;;;1.20;;
27533;SDS011;14973;51.460;7.008;2022-08-07T06:40:18;4.05;;;1.10;;
27533;SDS011;14973;51.460;7.008;2022-08-07T06:42:44;9.20;;;1.67;;
27533;SDS011;14973;51.460;7.008;2022-08-07T06:45:13;6.95;;;1.40;;
27533;SDS011;14973;51.460;7.008;2022-08-07T06:47:41;3.78;;;1.63;;
27533;SDS011;14973;51.460;7.008;2022-08-07T06:50:07;4.82;;;1.65;;
27533;SDS011;14973;51.460;7.008;2022-08-07T06:52:35;5.85;;;1.63;;
27533;SDS011;14973;51.460;7.008;2022-08-07T06:55:07;3.50;;;1.88;;
27533;SDS011;14973;51.460;7.008;2022-08-07T06:57:36;2.88;;;1.52;;
27533;SDS011;14973;51.460;7.008;2022-08-07T07:00:02;4.03;;;1.63;;
27533;SDS011;14973;51.460;7.008;2022-08-07T07:02:29;4.90;;;1.70;;
27533;SDS011;14973;51.460;7.008;2022-08-07T07:04:55;5.40;;;2.17;;
27533;SDS011;14973;51.460;7.008;2022-08-07T07:07:21;5.22;;;1.90;;
27533;SDS011;14973;51.460;7.008;2022-08-07T07:09:48;2.97;;;1.77;;
27533;SDS011;14973;51.460;7.008;2022-08-07T07:14:55;6.80;;;2.30;;
27533;SDS011;14973;51.460;7.008;2022-08-07T07:17:40;5.70;;;1.77;;
27533;SDS011;14973;51.460;7.008;2022-08-07T07:20:14;4.15;;;1.88;;
27533;SDS011;14973;51.460;7.008;2022-08-07T07:22:42;6.50;;;2.00;;
27533;SDS011;14973;51.460;7.008;2022-08-07T07:25:09;3.35;;;1.88;;
27533;SDS011;14973;51.460;7.008;2022-08-07T07:27:39;9.27;;;2.13;;
27533;SDS011;14973;51.460;7.008;2022-08-07T07:30:08;4.93;;;2.17;;
27533;SDS011;14973;51.460;7.008;2022-08-07T07:32:36;4.50;;;1.92;;
27533;SDS011;14973;51.460;7.008;2022-08-07T07:35:04;3.95;;;1.80;;
27533;SDS011;14973;51.460;7.008;2022-08-07T07:37:32;6.78;;;2.10;;
27533;SDS011;14973;51.460;7.008;2022-08-07T07:40:03;3.90;;;2.20;;
27533;SDS011;14973;51.460;7.008;2022-08-07T07:42:31;6.78;;;2.03;;
27533;SDS011;14973;51.460;7.008;2022-08-07T07:45:00;9.10;;;2.10;;
27533;SDS011;14973;51.460;7.008;2022-08-07T07:47:28;9.40;;;2.00;;
27533;SDS011;14973;51.460;7.008;2022-08-07T07:49:54;8.30;;;2.40;;
27533;SDS011;14973;51.460;7.008;2022-08-07T07:52:21;7.38;;;2.42;;
27533;SDS011;14973;51.460;7.008;2022-08-07T07:54:49;5.65;;;2.30;;
27533;SDS011;14973;51.460;7.008;2022-08-07T07:57:15;7.70;;;2.00;;
27533;SDS011;14973;51.460;7.008;2022-08-07T07:59:45;4.75;;;2.45;;
27533;SDS011;14973;51.460;7.008;2022-08-07T08:02:12;8.13;;;2.30;;
27533;SDS011;14973;51.460;7.008;2022-08-07T08:04:39;6.30;;;2.42;;
27533;SDS011;14973;51.460;7.008;2022-08-07T08:07:07;6.13;;;2.45;;
27533;SDS011;14973;51.460;7.008;2022-08-07T08:09:35;6.85;;;2.10;;
27533;SDS011;14973;51.460;7.008;2022-08-07T08:12:03;9.63;;;2.55;;
27533;SDS011;14973;51.460;7.008;2022-08-07T08:14:32;5.03;;;2.33;;
27533;SDS011;14973;51.460;7.008;2022-08-07T08:16:59;4.68;;;2.58;;
27533;SDS011;14973;51.460;7.008;2022-08-07T08:19:26;4.75;;;2.22;;
27533;SDS011;14973;51.460;7.008;2022-08-07T08:21:53;6.28;;;2.50;;
27533;SDS011;14973;51.460;7.008;2022-08-07T08:24:43;10.07;;;2.13;;
27533;SDS011;14973;51.460;7.008;2022-08-07T08:27:32;3.65;;;1.90;;
27533;SDS011;14973;51.460;7.008;2022-08-07T08:30:04;2.50;;;1.80;;
27533;SDS011;14973;51.460;7.008;2022-08-07T08:32:33;2.80;;;1.30;;
27533;SDS011;14973;51.460;7.008;2022-08-07T08:35:02;4.85;;;1.05;;
27533;SDS011;14973;51.460;7.008;2022-08-07T08:37:31;3.42;;;1.15;;
27533;SDS011;14973;51.460;7.008;2022-08-07T08:40:00;3.97;;;1.30;;
27533;SDS011;14973;51.460;7.008;2022-08-07T08:42:33;4.05;;;0.90;;
27533;SDS011;14973;51.460;7.008;2022-08-07T08:47:43;4.68;;;0.70;;
27533;SDS011;14973;51.460;7.008;2022-08-07T08:50:33;5.68;;;0.90;;
27533;SDS011;14973;51.460;7.008;2022-08-07T08:53:23;2.03;;;0.98;;
27533;SDS011;14973;51.460;7.008;2022-08-07T08:55:57;2.10;;;0.73;;
27533;SDS011;14973;51.460;7.008;2022-08-07T09:01:17;1.85;;;0.60;;
27533;SDS011;14973;51.460;7.008;2022-08-07T09:24:09;2.47;;;0.60;;
27533;SDS011;14973;51.460;7.008;2022-08-07T09:43:04;4.60;;;0.60;;
27533;SDS011;14973;51.460;7.008;2022-08-07T09:49:05;1.13;;;0.40;;
27533;SDS011;14973;51.460;7.008;2022-08-07T09:51:43;1.80;;;1.00;;
27533;SDS011;14973;51.460;7.008;2022-08-07T09:54:22;1.27;;;0.50;;
27533;SDS011;14973;51.460;7.008;2022-08-07T10:10:39;1.10;;;0.55;;
27533;SDS011;14973;51.460;7.008;2022-08-07T10:13:13;1.58;;;0.68;;
27533;SDS011;14973;51.460;7.008;2022-08-07T10:18:43;1.17;;;0.65;;
27533;SDS011;14973;51.460;7.008;2022-08-07T10:21:52;1.70;;;0.73;;
27533;SDS011;14973;51.460;7.008;2022-08-07T10:44:40;4.13;;;0.75;;
27533;SDS011;14973;51.460;7.008;2022-08-07T10:49:55;2.45;;;0.63;;
27533;SDS011;14973;51.460;7.008;2022-08-07T10:52:44;1.35;;;0.77;;
27533;SDS011;14973;51.460;7.008;2022-08-07T10:55:19;6.43;;;1.05;;
27533;SDS011;14973;51.460;7.008;2022-08-07T10:57:50;5.97;;;0.70;;
27533;SDS011;14973;51.460;7.008;2022-08-07T11:03:36;3.17;;;0.60;;
27533;SDS011;14973;51.460;7.008;2022-08-07T11:06:11;1.10;;;0.70;;
27533;SDS011;14973;51.460;7.008;2022-08-07T11:11:26;2.83;;;0.73;;
27533;SDS011;14973;51.460;7.008;2022-08-07T11:14:18;10.60;;;0.82;;
27533;SDS011;14973;51.460;7.008;2022-08-07T11:16:49;1.73;;;0.70;;
27533;SDS011;14973;51.460;7.008;2022-08-07T11:19:28;2.05;;;0.80;;
27533;SDS011;14973;51.460;7.008;2022-08-07T11:22:06;1.35;;;0.77;;
27533;SDS011;14973;51.460;7.008;2022-08-07T11:24:55;3.78;;;0.65;;
27533;SDS011;14973;51.460;7.008;2022-08-07T11:30:14;1.02;;;0.60;;
27533;SDS011;14973;51.460;7.008;2022-08-07T11:35:30;7.50;;;0.60;;
27533;SDS011;14973;51.460;7.008;2022-08-07T11:38:30;5.13;;;1.05;;
27533;SDS011;14973;51.460;7.008;2022-08-07T11:41:12;4.30;;;0.68;;
27533;SDS011;14973;51.460;7.008;2022-08-07T11:55:22;1.60;;;0.50;;
27533;SDS011;14973;51.460;7.008;2022-08-07T12:01:06;1.67;;;0.60;;
27533;SDS011;14973;51.460;7.008;2022-08-07T12:03:48;4.60;;;0.77;;
27533;SDS011;14973;51.460;7.008;2022-08-07T12:15:22;4.10;;;0.80;;
27533;SDS011;14973;51.460;7.008;2022-08-07T12:17:52;3.15;;;0.68;;
27533;SDS011;14973;51.460;7.008;2022-08-07T12:25:51;1.17;;;0.50;;
27533;SDS011;14973;51.460;7.008;2022-08-07T12:31:43;4.07;;;0.70;;
27533;SDS011;14973;51.460;7.008;2022-08-07T12:34:28;1.40;;;0.73;;
27533;SDS011;14973;51.460;7.008;2022-08-07T12:36:56;5.07;;;0.68;;
27533;SDS011;14973;51.460;7.008;2022-08-07T12:39:23;7.05;;;1.20;;
27533;SDS011;14973;51.460;7.008;2022-08-07T12:41:51;2.63;;;0.60;;
27533;SDS011;14973;51.460;7.008;2022-08-07T12:44:18;2.15;;;0.68;;
27533;SDS011;14973;51.460;7.008;2022-08-07T12:46:54;3.55;;;0.90;;
27533;SDS011;14973;51.460;7.008;2022-08-07T12:52:18;1.23;;;0.85;;
27533;SDS011;14973;51.460;7.008;2022-08-07T12:55:03;3.45;;;0.90;;
27533;SDS011;14973;51.460;7.008;2022-08-07T12:57:37;4.07;;;1.00;;
27533;SDS011;14973;51.460;7.008;2022-08-07T13:00:05;2.75;;;0.50;;
27533;SDS011;14973;51.460;7.008;2022-08-07T13:08:21;2.60;;;0.90;;
27533;SDS011;14973;51.460;7.008;2022-08-07T13:11:05;2.05;;;0.77;;
27533;SDS011;14973;51.460;7.008;2022-08-07T13:16:51;3.15;;;0.77;;
27533;SDS011;14973;51.460;7.008;2022-08-07T13:19:43;2.30;;;0.70;;
27533;SDS011;14973;51.460;7.008;2022-08-07T13:22:25;6.20;;;1.13;;
27533;SDS011;14973;51.460;7.008;2022-08-07T13:25:11;9.63;;;0.93;;
27533;SDS011;14973;51.460;7.008;2022-08-07T13:27:42;4.03;;;0.68;;
27533;SDS011;14973;51.460;7.008;2022-08-07T13:30:14;5.65;;;0.80;;
27533;SDS011;14973;51.460;7.008;2022-08-07T13:32:46;0.88;;;0.50;;
27533;SDS011;14973;51.460;7.008;2022-08-07T13:35:51;3.25;;;0.90;;
27533;SDS011;14973;51.460;7.008;2022-08-07T13:38:30;3.80;;;1.17;;
27533;SDS011;14973;51.460;7.008;2022-08-07T13:43:45;1.48;;;1.02;;
27533;SDS011;14973;51.460;7.008;2022-08-07T13:46:13;2.38;;;0.65;;
27533;SDS011;14973;51.460;7.008;2022-08-07T13:48:43;2.85;;;0.60;;
27533;SDS011;14973;51.460;7.008;2022-08-07T13:51:12;1.77;;;0.70;;
27533;SDS011;14973;51.460;7.008;2022-08-07T13:53:40;7.82;;;0.95;;
27533;SDS011;14973;51.460;7.008;2022-08-07T13:56:15;5.80;;;0.90;;
27533;SDS011;14973;51.460;7.008;2022-08-07T13:58:43;3.33;;;0.98;;
27533;SDS011;14973;51.460;7.008;2022-08-07T14:03:55;1.80;;;1.00;;
27533;SDS011;14973;51.460;7.008;2022-08-07T14:06:22;3.55;;;1.30;;
27533;SDS011;14973;51.460;7.008;2022-08-07T14:08:55;2.13;;;0.88;;
27533;SDS011;14973;51.460;7.008;2022-08-07T14:11:22;4.25;;;0.80;;
27533;SDS011;14973;51.460;7.008;2022-08-07T14:13:53;4.65;;;1.40;;
27533;SDS011;14973;51.460;7.008;2022-08-07T14:16:25;3.72;;;1.05;;
27533;SDS011;14973;51.460;7.008;2022-08-07T14:18:57;1.40;;;0.60;;
27533;SDS011;14973;51.460;7.008;2022-08-07T14:21:26;3.65;;;0.80;;
27533;SDS011;14973;51.460;7.008;2022-08-07T14:24:03;4.80;;;1.00;;
27533;SDS011;14973;51.460;7.008;2022-08-07T14:27:25;4.20;;;0.90;;
27533;SDS011;14973;51.460;7.008;2022-08-07T14:29:22;2.53;;;0.80;;
27533;SDS011;14973;51.460;7.008;2022-08-07T14:31:50;1.30;;;0.90;;
27533;SDS011;14973;51.460;7.008;2022-08-07T14:34:17;1.55;;;0.70;;
27533;SDS011;14973;51.460;7.008;2022-08-07T14:36:45;2.17;;;1.05;;
27533;SDS011;14973;51.460;7.008;2022-08-07T14:39:12;5.78;;;1.02;;
27533;SDS011;14973;51.460;7.008;2022-08-07T14:41:40;2.38;;;1.25;;
27533;SDS011;14973;51.460;7.008;2022-08-07T14:44:07;1.25;;;0.77;;
27533;SDS011;14973;51.460;7.008;2022-08-07T14:46:36;5.40;;;1.25;;
27533;SDS011;14973;51.460;7.008;2022-08-07T14:49:04;5.35;;;1.00;;
27533;SDS011;14973;51.460;7.008;2022-08-07T14:51:31;2.00;;;0.70;;
27533;SDS011;14973;51.460;7.008;2022-08-07T14:53:59;4.63;;;1.00;;
27533;SDS011;14973;51.460;7.008;2022-08-07T14:56:27;2.33;;;0.80;;
27533;SDS011;14973;51.460;7.008;2022-08-07T14:58:55;1.55;;;0.70;;
27533;SDS011;14973;51.460;7.008;2022-08-07T15:01:26;3.08;;;0.98;;
27533;SDS011;14973;51.460;7.008;2022-08-07T15:04:02;5.80;;;0.82;;
27533;SDS011;14973;51.460;7.008;2022-08-07T15:06:32;5.30;;;2.05;;
27533;SDS011;14973;51.460;7.008;2022-08-07T15:09:01;3.53;;;1.10;;
27533;SDS011;14973;51.460;7.008;2022-08-07T15:11:39;1.52;;;0.70;;
27533;SDS011;14973;51.460;7.008;2022-08-07T15:14:21;5.10;;;0.82;;
27533;SDS011;14973;51.460;7.008;2022-08-07T15:16:58;3.03;;;1.05;;
27533;SDS011;14973;51.460;7.008;2022-08-07T15:19:28;4.03;;;1.23;;
27533;SDS011;14973;51.460;7.008;2022-08-07T15:21:57;5.60;;;1.00;;
27533;SDS011;14973;51.460;7.008;2022-08-07T15:24:34;2.38;;;0.90;;
27533;SDS011;14973;51.460;7.008;2022-08-07T15:27:19;1.88;;;1.00;;
27533;SDS011;14973;51.460;7.008;2022-08-07T15:29:49;3.85;;;0.80;;
27533;SDS011;14973;51.460;7.008;2022-08-07T15:32:16;2.25;;;0.90;;
27533;SDS011;14973;51.460;7.008;2022-08-07T15:34:49;1.45;;;0.90;;
27533;SDS011;14973;51.460;7.008;2022-08-07T15:37:18;4.68;;;1.10;;
27533;SDS011;14973;51.460;7.008;2022-08-07T15:39:49;5.32;;;0.90;;
27533;SDS011;14973;51.460;7.008;2022-08-07T15:45:10;2.10;;;0.80;;
27533;SDS011;14973;51.460;7.008;2022-08-07T15:47:55;3.08;;;0.98;;
27533;SDS011;14973;51.460;7.008;2022-08-07T15:50:28;6.43;;;1.20;;
27533;SDS011;14973;51.460;7.008;2022-08-07T15:53:04;4.18;;;0.88;;
27533;SDS011;14973;51.460;7.008;2022-08-07T15:55:38;3.45;;;0.80;;
27533;SDS011;14973;51.460;7.008;2022-08-07T15:58:17;1.80;;;0.95;;
27533;SDS011;14973;51.460;7.008;2022-08-07T16:00:47;4.30;;;1.00;;
27533;SDS011;14973;51.460;7.008;2022-08-07T16:03:17;4.18;;;1.30;;
27533;SDS011;14973;51.460;7.008;2022-08-07T16:05:47;2.30;;;1.08;;
27533;SDS011;14973;51.460;7.008;2022-08-07T16:08:15;2.05;;;0.90;;
27533;SDS011;14973;51.460;7.008;2022-08-07T16:10:47;4.65;;;1.10;;
27533;SDS011;14973;51.460;7.008;2022-08-07T16:21:45;3.17;;;0.90;;
27533;SDS011;14973;51.460;7.008;2022-08-07T16:26:55;3.03;;;0.95;;
27533;SDS011;14973;51.460;7.008;2022-08-07T16:32:18;2.55;;;0.88;;
27533;SDS011;14973;51.460;7.008;2022-08-07T16:35:37;4.57;;;1.00;;
27533;SDS011;14973;51.460;7.008;2022-08-07T16:40:29;2.35;;;0.77;;
27533;SDS011;14973;51.460;7.008;2022-08-07T16:43:18;2.97;;;0.88;;
27533;SDS011;14973;51.460;7.008;2022-08-07T16:46:24;3.85;;;1.20;;
27533;SDS011;14973;51.460;7.008;2022-08-07T16:52:16;3.53;;;0.82;;
27533;SDS011;14973;51.460;7.008;2022-08-07T16:54:57;4.80;;;1.85;;
27533;SDS011;14973;51.460;7.008;2022-08-07T16:57:35;3.65;;;1.33;;
27533;SDS011;14973;51.460;7.008;2022-08-07T17:00:16;6.25;;;1.15;;
27533;SDS011;14973;51.460;7.008;2022-08-07T17:08:58;4.60;;;1.15;;
27533;SDS011;14973;51.460;7.008;2022-08-07T17:11:30;4.72;;;1.35;;
27533;SDS011;14973;51.460;7.008;2022-08-07T17:14:03;2.97;;;1.20;;
27533;SDS011;14973;51.460;7.008;2022-08-07T17:16:48;8.55;;;1.05;;
27533;SDS011;14973;51.460;7.008;2022-08-07T17:19:43;3.30;;;1.10;;
27533;SDS011;14973;51.460;7.008;2022-08-07T17:22:25;2.25;;;1.00;;
27533;SDS011;14973;51.460;7.008;2022-08-07T17:30:18;2.95;;;1.20;;
27533;SDS011;14973;51.460;7.008;2022-08-07T17:35:41;1.88;;;0.90;;
27533;SDS011;14973;51.460;7.008;2022-08-07T17:43:51;3.60;;;1.30;;
27533;SDS011;14973;51.460;7.008;2022-08-07T17:46:46;3.70;;;1.13;;
27533;SDS011;14973;51.460;7.008;2022-08-07T17:49:22;3.50;;;1.20;;
27533;SDS011;14973;51.460;7.008;2022-08-07T17:51:56;2.10;;;1.20;;
27533;SDS011;14973;51.460;7.008;2022-08-07T17:54:46;4.32;;;1.48;;
27533;SDS011;14973;51.460;7.008;2022-08-07T18:00:06;5.65;;;1.33;;
27533;SDS011;14973;51.460;7.008;2022-08-07T18:08:23;3.75;;;1.60;;
27533;SDS011;14973;51.460;7.008;2022-08-07T18:11:15;7.13;;;1.27;;
27533;SDS011;14973;51.460;7.008;2022-08-07T18:13:55;2.95;;;1.42;;
27533;SDS011;14973;51.460;7.008;2022-08-07T18:21:59;3.72;;;1.38;;
27533;SDS011;14973;51.460;7.008;2022-08-07T18:40:23;2.33;;;1.45;;
27533;SDS011;14973;51.460;7.008;2022-08-07T18:42:55;5.13;;;1.45;;
27533;SDS011;14973;51.460;7.008;2022-08-07T18:45:26;2.95;;;1.55;;
27533;SDS011;14973;51.460;7.008;2022-08-07T18:48:24;2.60;;;1.30;;
27533;SDS011;14973;51.460;7.008;2022-08-07T18:54:02;2.70;;;1.52;;
27533;SDS011;14973;51.460;7.008;2022-08-07T18:56:52;6.43;;;1.48;;
27533;SDS011;14973;51.460;7.008;2022-08-07T19:10:27;3.97;;;1.45;;